Terminal Aerodrome Forecast
Issued by NWS Charleston, SC

Home | Current Version | Previous Version | Text Only | Print | Product List | Glossary On
Versions: 1 2 3 4 5 6 7 8 9 10 11 12 13 14
000
FTUS42 KCHS 201120
TAFSAV
TAF
KSAV 201120Z 2012/2112 VRB04KT P6SM FEW035 SCT060
     FM201900 12010KT P6SM SCT045
     FM210100 14005KT P6SM FEW015 SCT070 BKN250=

USA.gov is the U.S. government's official web portal to all federal, state and local government web resources and services.